Flight Track Log - Related Links

Times and Time Zones

All times are in EDT time to prevent confusion due to time zone crossing. See the SWA862 flight status page for this flight to view local times or setup timezone preferences in your user account.

Time Position Orientation Groundspeed Altitude Reporting Facility
EDT Latitude Longitude Course Direction KTS MPH feet Rate Location/Type
Wed 08:48:11 PM 35.8497 -78.8183 224° Southwest 142 163 2,500  Level Washington Center
Wed 08:49:42 PM 35.8642 -78.9033 282° West 204 235 8,000 3,497 Climbing Washington Center
Wed 08:50:42 PM 35.9319 -78.8653 24° Northeast 178 205 11,300 2,850 Climbing Washington Center
Wed 08:51:42 PM 36.0072 -78.7786 43° Northeast 261 300 13,700 3,273 Climbing Washington Center
Wed 08:52:43 PM 36.0953 -78.6792 42° Northeast 325 374 17,900 3,669 Climbing Washington Center
Wed 08:53:43 PM 36.1814 -78.5797 43° Northeast 363 418 21,100 2,500 Climbing Washington Center
Wed 08:54:43 PM 36.2717 -78.4750 43° Northeast 402 463 22,900 950 Climbing Washington Center
Wed 08:55:43 PM 36.3639 -78.3647 44° Northeast 437 503 23,000 50 Climbing Washington Center
Wed 08:56:42 PM 36.4583 -78.2544 43° Northeast 451 519 23,000  Level Washington Center
Wed 08:57:43 PM 36.5564 -78.1519 40° Northeast 457 526 23,000  Level Washington Center
Wed 08:58:43 PM 36.6581 -78.0853 28° Northeast 419 482 23,000  Level Washington Center
Wed 08:59:43 PM 36.7528 -78.0364 22° Northeast 394 453 23,000  Level Washington Center
Wed 09:00:43 PM 36.8414 -77.9875 24° Northeast 364 419 23,000  Level Washington Center
Wed 09:01:43 PM 36.9364 -77.9358 23° Northeast 357 411 23,000  Level Washington Center
Wed 09:02:43 PM 37.0314 -77.8839 24° Northeast 357 411 23,000  Level Washington Center
Wed 09:03:43 PM 37.1261 -77.8347 22° Northeast 357 411 23,000  Level Washington Center
Wed 09:04:43 PM 37.2189 -77.7825 24° Northeast 357 411 23,000  Level Washington Center
Wed 09:05:43 PM 37.3136 -77.7331 23° Northeast 363 418 23,000  Level Washington Center
Wed 09:06:43 PM 37.4147 -77.6758 24° Northeast 376 433 23,000  Level Washington Center
Wed 09:07:43 PM 37.5178 -77.6211 23° Northeast 387 445 23,000  Level Washington Center
Wed 09:08:43 PM 37.6189 -77.5633 24° Northeast 387 445 23,000  Level Washington Center
Wed 09:09:43 PM 37.7200 -77.5083 23° Northeast 387 445 23,000  Level Washington Center
Wed 09:10:42 PM 37.8211 -77.4503 24° Northeast 392 451 23,000  Level Washington Center
Wed 09:11:42 PM 37.9242 -77.3950 23° Northeast 392 451 23,000  Level Washington Center
Wed 09:12:43 PM 38.0250 -77.3369 24° Northeast 392 451 23,000 -298 Level Washington Center
Wed 09:13:43 PM 38.1153 -77.2886 23° Northeast 392 451 22,400 -1,750 Descending Washington Center
Wed 09:14:43 PM 38.1403 -77.1494 77° East 334 384 19,500 -1,700 Descending Washington Center
Wed 09:15:43 PM 38.0550 -77.1239 167° South 143 165 19,000 -250 Descending Washington Center
Wed 09:16:43 PM 38.0100 -77.2178 239° Southwest 166 191 19,000  Level Washington Center
Wed 09:17:43 PM 38.0128 -77.3206 272° West 222 255 19,000  Level Washington Center
Wed 09:18:43 PM 38.0775 -77.3142 North 168 193 19,000  Level Washington Center
Wed 09:19:43 PM 38.0875 -77.2011 84° East 120 138 19,000  Level Washington Center
Wed 09:20:43 PM 38.1503 -77.1733 19° North 195 224 19,000  Level Washington Center
Wed 09:21:43 PM 38.1322 -77.2681 256° West 121 139 19,000  Level Washington Center
Wed 09:22:43 PM 38.0608 -77.3192 209° Southwest 181 208 19,000  Level Washington Center
Wed 09:23:43 PM 37.9728 -77.3356 188° South 229 264 19,000  Level Washington Center
Wed 09:24:42 PM 37.9281 -77.2636 128° Southeast 201 231 19,000  Level Washington Center
Wed 09:25:43 PM 37.9831 -77.2067 39° Northeast 129 148 19,000  Level Washington Center
Wed 09:26:43 PM 38.0456 -77.2003 North 160 184 19,000 -250 Level Washington Center
Wed 09:27:43 PM 38.1167 -77.1939 North 261 300 18,500 -950 Descending Washington Center
Wed 09:28:43 PM 38.2086 -77.1719 11° North 279 321 17,100 -1,300 Descending Washington Center
Wed 09:29:43 PM 38.3069 -77.1528 North 312 359 15,900 -1,150 Descending Washington Center
Wed 09:30:43 PM 38.3908 -77.1256 14° North 317 365 14,800 -1,300 Descending Washington Center
Wed 09:31:43 PM 38.4564 -77.0447 44° Northeast 305 351 13,300 -1,450 Descending Washington Center
Wed 09:32:43 PM 38.5242 -76.9636 43° Northeast 315 362 11,900 -1,210 Descending Washington Center
Wed 09:33:42 PM 38.5894 -76.8878 42° Northeast 315 362 10,900 -1,050 Descending Washington Center
Wed 09:34:43 PM 38.6550 -76.8092 43° Northeast 315 362 9,800 -1,041 Descending Washington Center
Wed 09:35:43 PM 38.7161 -76.7278 46° Northeast 315 362 8,800 -1,150 Descending Washington Center
Wed 09:36:43 PM 38.7567 -76.6300 62° Northeast 309 356 7,500 -1,170 Descending Washington Center
Wed 09:38:22 PM 38.8500 -76.5167 43° Northeast 291 335 5,700 -981 Descending Potomac TRACON
Wed 09:39:22 PM 38.9333 -76.5167 360° North 280 322 4,900 -1,000 Descending Potomac TRACON
Wed 09:40:22 PM 39.0000 -76.5167 360° North 263 303 3,700 -1,150 Descending Potomac TRACON
Wed 09:41:22 PM 39.0500 -76.5667 322° Northwest 224 258 2,600 -1,050 Descending Potomac TRACON
Wed 09:42:22 PM 39.1000 -76.6000 333° Northwest 175 201 1,600 -1,000 Descending Potomac TRACON
Wed 09:44:00 PM 39.1667 -76.6667 339° North  Level FlightAware Approximate

Login

Don't have an account? Register now (free) for customized features, flight alerts, and more!